Time;durP1;ratioP1;P1;durP2;ratioP2;P2;SDS_P1;SDS_P2;PMS_P1;PMS_P2;Temp;Humidity;BMP_temperature;BMP_pressure;BME280_temperature;BME280_humidity;BME280_pressure;Samples;Min_cycle;Max_cycle;Signal;HPM_P1;HPM_P2
2023/10/18 00:01:24;;;;;;;3.07;2.60;;;6.80;99.90;;;;;;4978144;28;20556;-75
2023/10/18 00:03:50;;;;;;;3.23;2.40;;;6.80;99.90;;;;;;4983790;28;20346;-74
2023/10/18 00:06:16;;;;;;;3.40;2.40;;;6.90;99.90;;;;;;4978529;28;20230;-75
2023/10/18 00:08:45;;;;;;;3.07;2.50;;;6.90;99.90;;;;;;4980751;28;20454;-74
2023/10/18 00:11:10;;;;;;;3.70;2.87;;;6.90;99.90;;;;;;4980782;28;20218;-75
2023/10/18 00:13:36;;;;;;;3.73;2.80;;;7.00;99.90;;;;;;4981926;28;20442;-73
2023/10/18 00:16:06;;;;;;;3.50;2.70;;;7.00;99.90;;;;;;4982863;28;20298;-74
2023/10/18 00:18:33;;;;;;;4.00;2.67;;;7.00;99.90;;;;;;4982553;28;20297;-73
2023/10/18 00:21:04;;;;;;;4.73;2.70;;;6.90;99.90;;;;;;4983761;28;20504;-73
2023/10/18 00:23:32;;;;;;;2.30;2.10;;;6.90;99.90;;;;;;4964449;28;20445;-74
2023/10/18 00:26:05;;;;;;;2.53;2.33;;;6.90;99.90;;;;;;4982785;28;20462;-73
2023/10/18 00:28:31;;;;;;;3.83;3.30;;;6.80;99.90;;;;;;4976561;28;20508;-75
2023/10/18 00:31:09;;;;;;;2.90;2.60;;;6.70;99.90;;;;;;4982067;28;20450;-74
2023/10/18 00:33:35;;;;;;;2.67;2.40;;;6.80;99.90;;;;;;4982260;28;20452;-72
2023/10/18 00:36:00;;;;;;;2.30;2.10;;;6.80;99.90;;;;;;4982479;28;20449;-74
2023/10/18 00:38:26;;;;;;;2.50;2.20;;;6.80;99.90;;;;;;4979433;28;20306;-74
2023/10/18 00:40:51;;;;;;;4.90;3.13;;;6.70;99.90;;;;;;4982385;28;20242;-75
2023/10/18 00:45:45;;;;;;;2.63;2.43;;;6.80;99.90;;;;;;4981418;28;20223;-74
2023/10/18 00:48:11;;;;;;;4.63;3.47;;;6.80;99.90;;;;;;4979628;28;20457;-75
2023/10/18 00:50:39;;;;;;;5.50;2.40;;;6.80;99.90;;;;;;4981838;28;20821;-73
2023/10/18 00:53:06;;;;;;;5.00;3.03;;;6.80;99.90;;;;;;4983923;28;20492;-75
2023/10/18 00:55:32;;;;;;;4.60;3.10;;;6.80;99.90;;;;;;4977000;28;20453;-74
2023/10/18 00:58:04;;;;;;;4.30;2.67;;;6.80;99.90;;;;;;4981552;28;20457;-74
2023/10/18 01:00:30;;;;;;;3.33;2.80;;;6.80;99.90;;;;;;4978174;28;20505;-74
2023/10/18 01:02:59;;;;;;;2.87;2.40;;;6.80;99.90;;;;;;4981456;28;20501;-74
2023/10/18 01:05:25;;;;;;;4.40;2.60;;;6.70;99.90;;;;;;4997071;28;20612;-74
2023/10/18 01:07:53;;;;;;;2.40;2.20;;;6.70;99.90;;;;;;4980746;28;20558;-75
2023/10/18 01:10:23;;;;;;;4.20;2.57;;;6.80;99.90;;;;;;4979101;28;20544;-73
2023/10/18 01:12:52;;;;;;;5.73;3.40;;;6.70;99.90;;;;;;4981358;28;20468;-74
2023/10/18 01:15:19;;;;;;;5.17;2.60;;;6.70;99.90;;;;;;4982033;28;20481;-74
2023/10/18 01:17:47;;;;;;;3.60;2.33;;;6.70;99.90;;;;;;4985328;28;20457;-74
2023/10/18 01:20:27;;;;;;;2.57;2.30;;;6.70;99.90;;;;;;4978200;28;20553;-74
2023/10/18 01:22:53;;;;;;;3.03;2.60;;;6.70;99.90;;;;;;4996586;28;20573;-74
2023/10/18 01:25:20;;;;;;;3.93;2.90;;;6.70;99.90;;;;;;4977201;28;20564;-74
2023/10/18 01:27:45;;;;;;;8.90;2.70;;;6.60;99.90;;;;;;4981249;28;20496;-75
2023/10/18 01:30:15;;;;;;;4.13;3.30;;;6.60;99.90;;;;;;4994603;28;20234;-74
2023/10/18 01:32:40;;;;;;;3.50;2.73;;;6.60;99.90;;;;;;4981294;28;20226;-74
2023/10/18 01:35:06;;;;;;;4.03;3.60;;;6.60;99.90;;;;;;4980177;28;20462;-75
2023/10/18 01:37:32;;;;;;;4.50;2.83;;;6.60;99.90;;;;;;4982200;28;20297;-73
2023/10/18 01:40:19;;;;;;;3.43;2.63;;;6.60;99.90;;;;;;4980772;28;20645;-75
2023/10/18 01:42:43;;;;;;;3.20;2.87;;;6.60;99.90;;;;;;4981143;28;20250;-74
2023/10/18 01:45:11;;;;;;;3.30;3.00;;;6.60;99.90;;;;;;4977660;28;20496;-74
2023/10/18 01:47:38;;;;;;;3.70;3.40;;;6.60;99.90;;;;;;4982094;28;20214;-74
2023/10/18 01:50:04;;;;;;;2.40;2.20;;;6.60;99.90;;;;;;4979833;28;20465;-73
2023/10/18 01:52:30;;;;;;;4.07;3.10;;;6.50;99.90;;;;;;4978151;28;20923;-73
2023/10/18 01:54:55;;;;;;;3.83;2.70;;;6.50;99.90;;;;;;4981085;28;20557;-72
2023/10/18 01:57:21;;;;;;;3.87;2.33;;;6.50;99.90;;;;;;4978173;28;20285;-72
2023/10/18 01:59:49;;;;;;;3.27;2.60;;;6.40;99.90;;;;;;4964032;28;20210;-72
2023/10/18 02:02:15;;;;;;;4.13;3.43;;;6.50;99.90;;;;;;4977797;28;20249;-72
2023/10/18 02:04:41;;;;;;;3.20;2.80;;;6.40;99.90;;;;;;4980957;28;20573;-73
2023/10/18 02:07:07;;;;;;;4.17;3.17;;;6.40;99.90;;;;;;4979202;28;20550;-73
2023/10/18 02:09:49;;;;;;;5.07;3.40;;;6.40;99.90;;;;;;4986321;28;20214;-73
2023/10/18 02:12:21;;;;;;;6.03;2.90;;;6.40;99.90;;;;;;4978785;28;20480;-72
2023/10/18 02:14:48;;;;;;;4.10;3.20;;;6.40;99.90;;;;;;4967012;28;20461;-72
2023/10/18 02:17:18;;;;;;;4.40;3.00;;;6.40;99.90;;;;;;4977751;28;20457;-72
2023/10/18 02:19:44;;;;;;;3.87;3.00;;;6.40;99.90;;;;;;4982608;28;20541;-72
2023/10/18 02:22:13;;;;;;;4.53;3.03;;;6.50;99.90;;;;;;4962930;28;20473;-73
2023/10/18 02:24:44;;;;;;;4.43;3.07;;;6.40;99.90;;;;;;4984675;28;20541;-73
2023/10/18 02:27:15;;;;;;;5.63;3.60;;;6.40;99.90;;;;;;4980719;28;20810;-73
2023/10/18 02:29:42;;;;;;;5.73;3.87;;;6.40;99.90;;;;;;4988218;28;20461;-72
2023/10/18 02:35:09;;;;;;;3.20;2.70;;;6.40;99.90;;;;;;5002586;28;20459;-72
2023/10/18 02:37:35;;;;;;;4.73;2.80;;;6.30;99.90;;;;;;4987752;28;20803;-72
2023/10/18 02:40:07;;;;;;;3.87;2.60;;;6.30;99.90;;;;;;4983887;28;20468;-73
2023/10/18 02:42:34;;;;;;;4.67;3.27;;;6.20;99.90;;;;;;4985165;28;20689;-73
2023/10/18 02:45:00;;;;;;;4.73;3.33;;;6.30;99.90;;;;;;4981539;28;20464;-72
2023/10/18 02:47:27;;;;;;;5.23;3.40;;;6.30;99.90;;;;;;4981872;28;20218;-72
2023/10/18 02:49:53;;;;;;;4.00;3.10;;;6.30;99.90;;;;;;4984304;28;20520;-73
2023/10/18 02:52:19;;;;;;;6.13;3.77;;;6.10;99.90;;;;;;4980196;28;20489;-72
2023/10/18 02:54:48;;;;;;;5.30;2.90;;;6.20;99.90;;;;;;4983639;28;20206;-74
2023/10/18 02:57:14;;;;;;;6.07;3.20;;;6.20;99.90;;;;;;4980414;28;20454;-72
2023/10/18 02:59:41;;;;;;;3.20;2.90;;;6.20;99.90;;;;;;4984582;28;20454;-73
2023/10/18 03:02:13;;;;;;;3.77;3.10;;;6.10;99.90;;;;;;4996263;28;20210;-73
2023/10/18 03:04:42;;;;;;;10.70;3.00;;;6.10;99.90;;;;;;4981215;28;20529;-72
2023/10/18 03:07:12;;;;;;;5.13;3.47;;;6.20;99.90;;;;;;4979745;28;20480;-72
2023/10/18 03:09:41;;;;;;;4.47;3.30;;;6.10;99.90;;;;;;4984244;28;20458;-72
2023/10/18 03:12:13;;;;;;;5.13;3.40;;;6.10;99.90;;;;;;4980396;28;20450;-73
2023/10/18 03:14:39;;;;;;;5.63;3.67;;;6.00;99.90;;;;;;4972128;28;20469;-72
2023/10/18 03:19:54;;;;;;;3.83;2.80;;;6.20;99.90;;;;;;4981436;28;20463;-73
2023/10/18 03:22:26;;;;;;;4.90;3.03;;;6.20;99.90;;;;;;4993712;28;20462;-73
2023/10/18 03:24:56;;;;;;;3.83;2.97;;;6.10;99.90;;;;;;4983867;28;20500;-72
2023/10/18 03:27:32;;;;;;;4.10;3.00;;;6.10;99.90;;;;;;4981615;28;20553;-73
2023/10/18 03:29:58;;;;;;;4.27;3.20;;;6.20;99.90;;;;;;4983135;28;20469;-72
2023/10/18 03:32:25;;;;;;;3.70;3.30;;;6.20;99.90;;;;;;4980104;28;20501;-73
2023/10/18 03:34:54;;;;;;;3.63;2.53;;;6.20;99.90;;;;;;4965904;28;20576;-72
2023/10/18 03:37:24;;;;;;;8.57;3.17;;;6.20;99.90;;;;;;4976800;28;20556;-72
2023/10/18 03:39:54;;;;;;;6.83;4.07;;;6.20;99.90;;;;;;4982756;28;20480;-72
2023/10/18 03:42:30;;;;;;;3.37;2.90;;;6.20;99.90;;;;;;4963816;28;20555;-72
2023/10/18 03:45:10;;;;;;;4.30;2.67;;;6.20;99.90;;;;;;4982314;28;20469;-72
2023/10/18 03:47:41;;;;;;;5.53;3.07;;;6.20;99.90;;;;;;4962998;28;20450;-72
2023/10/18 03:50:15;;;;;;;3.90;3.30;;;6.20;99.90;;;;;;4983236;28;20471;-72
2023/10/18 03:52:41;;;;;;;3.83;3.20;;;6.20;99.90;;;;;;4979820;28;20453;-70
2023/10/18 03:55:17;;;;;;;7.23;3.63;;;6.20;99.90;;;;;;4979193;28;20461;-72
2023/10/18 03:57:43;;;;;;;3.37;2.83;;;6.20;99.90;;;;;;4982483;28;20452;-72
2023/10/18 04:02:59;;;;;;;3.17;2.17;;;6.00;99.90;;;;;;4981406;28;20488;-72
2023/10/18 04:05:44;;;;;;;4.10;3.17;;;6.10;99.90;;;;;;4979153;28;20478;-72
2023/10/18 04:08:14;;;;;;;5.63;3.03;;;6.10;99.90;;;;;;4960481;28;20537;-71
2023/10/18 04:10:44;;;;;;;5.60;3.47;;;6.00;99.90;;;;;;4984985;28;21057;-70
2023/10/18 04:13:13;;;;;;;3.63;2.97;;;6.00;99.90;;;;;;4964709;28;20512;-72
2023/10/18 04:15:45;;;;;;;5.00;3.27;;;6.00;99.90;;;;;;4981500;28;20465;-72
2023/10/18 04:18:22;;;;;;;4.23;3.30;;;6.00;99.90;;;;;;4979419;28;20466;-73
2023/10/18 04:20:48;;;;;;;2.90;2.60;;;6.00;99.90;;;;;;4982969;28;20465;-72
2023/10/18 04:23:26;;;;;;;3.17;2.90;;;6.10;99.90;;;;;;4981248;28;20480;-72
2023/10/18 04:26:12;;;;;;;4.80;3.33;;;6.00;99.90;;;;;;4981860;28;20226;-73
2023/10/18 04:28:38;;;;;;;6.00;3.63;;;6.00;99.90;;;;;;4977517;28;20524;-72
2023/10/18 04:31:08;;;;;;;3.37;2.87;;;6.00;99.90;;;;;;4982643;28;20466;-72
2023/10/18 04:33:35;;;;;;;;;;;;;;;;;;;;;
2023/10/18 04:36:11;;;;;;;5.30;3.83;;;6.10;99.90;;;;;;4981663;28;20476;-72
2023/10/18 04:38:42;;;;;;;8.10;4.63;;;6.00;99.90;;;;;;4980345;28;20459;-69
2023/10/18 04:41:09;;;;;;;8.43;4.20;;;6.00;99.90;;;;;;4978558;28;20473;-72
2023/10/18 04:43:36;;;;;;;5.70;4.27;;;6.00;99.90;;;;;;4982639;28;20462;-73
2023/10/18 04:46:14;;;;;;;5.57;4.20;;;6.10;99.90;;;;;;4970180;28;20462;-71
2023/10/18 04:51:27;;;;;;;5.93;4.47;;;6.00;99.90;;;;;;4978580;28;20587;-72
2023/10/18 04:54:00;;;;;;;7.10;4.23;;;6.00;99.90;;;;;;4979038;28;20477;-72
2023/10/18 04:56:31;;;;;;;5.97;3.63;;;6.00;99.90;;;;;;4978926;28;20844;-72
2023/10/18 04:59:06;;;;;;;5.60;4.00;;;6.00;99.90;;;;;;4981701;28;20473;-73
2023/10/18 05:01:36;;;;;;;11.00;4.20;;;5.90;99.90;;;;;;4960026;28;20454;-72
2023/10/18 05:04:20;;;;;;;7.07;4.47;;;5.90;99.90;;;;;;4981741;28;20465;-71
2023/10/18 05:06:56;;;;;;;5.97;3.37;;;5.90;99.90;;;;;;4981948;28;20461;-70
2023/10/18 05:09:34;;;;;;;5.63;4.43;;;5.70;99.90;;;;;;4978839;28;20450;-72
2023/10/18 05:12:07;;;;;;;7.23;4.70;;;5.80;99.90;;;;;;4981376;28;20453;-72
2023/10/18 05:14:36;;;;;;;7.90;3.60;;;5.90;99.90;;;;;;4976630;28;20611;-69
2023/10/18 05:17:10;;;;;;;4.70;3.70;;;5.90;99.90;;;;;;4961168;28;20463;-72
2023/10/18 05:19:42;;;;;;;4.90;4.13;;;5.90;99.90;;;;;;4983487;28;20460;-69
2023/10/18 05:22:20;;;;;;;4.07;3.43;;;6.00;99.90;;;;;;4994294;28;20855;-70
2023/10/18 05:25:11;;;;;;;6.40;4.30;;;6.00;99.90;;;;;;4983124;28;20461;-72
2023/10/18 05:27:35;;;;;;;5.83;3.90;;;6.00;99.90;;;;;;4982663;28;20449;-70
2023/10/18 05:30:08;;;;;;;6.87;4.20;;;6.00;99.90;;;;;;4963752;28;20501;-70
2023/10/18 05:35:47;;;;;;;4.90;3.80;;;5.90;99.90;;;;;;4982402;28;20987;-71
2023/10/18 05:37:50;;;;;;;5.20;4.23;;;5.90;99.90;;;;;;4981917;28;20224;-72
2023/10/18 05:43:29;;;;;;;5.20;4.07;;;6.00;99.90;;;;;;4981925;28;20481;-72
2023/10/18 05:46:03;;;;;;;9.43;5.77;;;5.90;99.90;;;;;;4977000;28;20541;-72
2023/10/18 05:48:32;;;;;;;6.90;5.70;;;5.90;99.90;;;;;;4976337;28;21019;-73
2023/10/18 05:51:21;;;;;;;7.90;5.23;;;5.90;99.90;;;;;;4982390;28;20450;-73
2023/10/18 05:53:47;;;;;;;5.50;4.33;;;5.90;99.90;;;;;;4981667;28;20456;-73
2023/10/18 05:56:14;;;;;;;8.73;4.90;;;6.00;99.90;;;;;;4974136;28;20500;-72
2023/10/18 05:58:39;;;;;;;11.33;5.23;;;6.00;99.90;;;;;;4975745;28;20226;-72
2023/10/18 06:01:05;;;;;;;10.20;4.70;;;6.00;99.90;;;;;;4979532;28;20524;-72
2023/10/18 06:03:41;;;;;;;8.70;5.20;;;6.00;99.90;;;;;;4980178;28;20230;-72
2023/10/18 06:06:09;;;;;;;6.13;4.73;;;6.00;99.90;;;;;;4981427;28;20308;-72
2023/10/18 06:08:36;;;;;;;9.30;4.77;;;6.00;99.90;;;;;;4953407;28;20454;-71
2023/10/18 06:11:06;;;;;;;5.90;4.13;;;6.00;99.90;;;;;;4978292;28;20983;-73
2023/10/18 06:13:35;;;;;;;7.50;4.37;;;6.00;99.90;;;;;;4980514;28;21014;-73
2023/10/18 06:16:19;;;;;;;6.80;4.70;;;5.90;99.90;;;;;;4981845;28;20479;-72
2023/10/18 06:18:49;;;;;;;7.43;4.50;;;5.90;99.90;;;;;;4988659;28;20468;-73
2023/10/18 06:21:18;;;;;;;6.90;4.73;;;5.90;99.90;;;;;;5000417;28;20461;-71
2023/10/18 06:23:54;;;;;;;6.80;4.33;;;5.90;99.90;;;;;;4985984;28;20466;-72
2023/10/18 06:26:28;;;;;;;5.70;4.50;;;5.90;99.90;;;;;;4980343;28;20485;-73
2023/10/18 06:29:08;;;;;;;6.40;4.17;;;6.00;99.90;;;;;;4969085;28;20480;-73
2023/10/18 06:31:46;;;;;;;5.93;4.20;;;6.00;99.90;;;;;;4983594;28;20476;-72
2023/10/18 06:34:17;;;;;;;6.97;4.33;;;6.00;99.90;;;;;;4985036;28;20458;-72
2023/10/18 06:36:52;;;;;;;7.90;4.30;;;6.00;99.90;;;;;;4983571;28;20460;-72
2023/10/18 06:39:34;;;;;;;6.00;4.13;;;6.10;99.90;;;;;;4983051;28;20545;-72
2023/10/18 06:42:00;;;;;;;8.17;4.60;;;6.10;99.90;;;;;;4982572;28;21000;-73
2023/10/18 06:44:30;;;;;;;7.17;3.93;;;6.10;99.90;;;;;;4987639;28;20508;-72
2023/10/18 06:46:57;;;;;;;10.93;4.67;;;6.10;99.90;;;;;;4993487;28;20482;-72
2023/10/18 06:49:23;;;;;;;6.80;4.90;;;6.10;99.90;;;;;;4983757;28;20472;-72
2023/10/18 06:51:51;;;;;;;7.27;4.70;;;6.10;99.90;;;;;;4986024;28;21012;-72
2023/10/18 06:54:32;;;;;;;7.13;4.90;;;6.10;99.90;;;;;;5000231;28;20226;-72
2023/10/18 06:57:16;;;;;;;10.07;4.30;;;6.10;99.90;;;;;;4996996;28;20493;-73
2023/10/18 06:59:48;;;;;;;6.50;4.60;;;6.20;99.90;;;;;;4980065;28;20968;-72
2023/10/18 07:02:14;;;;;;;8.23;5.10;;;6.20;99.90;;;;;;4982191;28;20995;-72
2023/10/18 07:04:51;;;;;;;6.00;5.13;;;6.20;99.90;;;;;;4982270;28;20450;-74
2023/10/18 07:07:20;;;;;;;8.93;5.27;;;6.20;99.90;;;;;;4987554;28;20458;-72
2023/10/18 07:09:51;;;;;;;10.07;5.53;;;6.20;99.90;;;;;;4989596;28;20449;-72
2023/10/18 07:12:19;;;;;;;8.00;5.70;;;6.30;99.90;;;;;;4987834;28;21002;-72
2023/10/18 07:14:46;;;;;;;9.50;5.40;;;6.30;99.90;;;;;;4986978;28;20457;-72
2023/10/18 07:17:13;;;;;;;13.73;5.40;;;6.30;99.90;;;;;;4987703;28;20454;-72
2023/10/18 07:19:48;;;;;;;9.70;5.53;;;6.30;99.90;;;;;;4990438;28;20493;-72
2023/10/18 07:22:21;;;;;;;8.50;5.63;;;6.40;99.90;;;;;;4983661;28;20470;-72
2023/10/18 07:24:47;;;;;;;9.80;5.87;;;6.40;99.90;;;;;;4985745;28;20450;-72
2023/10/18 07:27:17;;;;;;;10.67;6.33;;;6.50;99.90;;;;;;4983773;28;20472;-72
2023/10/18 07:29:48;;;;;;;10.30;6.17;;;6.50;99.90;;;;;;4986344;28;20792;-72
2023/10/18 07:32:14;;;;;;;9.87;5.63;;;6.60;99.90;;;;;;4988119;28;20457;-73
2023/10/18 07:34:42;;;;;;;8.83;5.90;;;6.60;99.90;;;;;;4989637;28;20461;-72
2023/10/18 07:37:32;;;;;;;7.97;5.53;;;6.60;99.90;;;;;;4994672;28;20458;-72
2023/10/18 07:39:57;;;;;;;8.43;5.10;;;6.70;99.90;;;;;;4996368;28;20536;-72
2023/10/18 07:42:26;;;;;;;14.37;6.70;;;6.80;99.90;;;;;;5005581;28;20480;-73
2023/10/18 07:44:55;;;;;;;8.43;5.10;;;6.80;99.90;;;;;;4999846;28;20456;-73
2023/10/18 07:47:25;;;;;;;10.03;6.20;;;6.90;99.90;;;;;;4998261;28;20509;-72
2023/10/18 07:49:55;;;;;;;7.10;4.60;;;6.90;99.90;;;;;;5018886;28;20516;-72
2023/10/18 07:52:21;;;;;;;8.40;5.53;;;7.00;99.90;;;;;;4965277;28;20457;-72
2023/10/18 07:54:48;;;;;;;5.77;5.13;;;7.10;99.90;;;;;;4983544;28;20462;-73
2023/10/18 07:57:17;;;;;;;6.20;5.43;;;7.10;99.90;;;;;;4980301;28;20469;-72
2023/10/18 07:59:46;;;;;;;8.80;5.33;;;7.20;99.90;;;;;;4983121;28;20461;-72
2023/10/18 08:02:31;;;;;;;6.80;5.33;;;7.30;99.90;;;;;;4978881;28;20488;-73
2023/10/18 08:05:00;;;;;;;10.63;6.70;;;7.30;99.90;;;;;;4982390;28;20476;-72
2023/10/18 08:07:29;;;;;;;8.10;6.10;;;7.30;99.90;;;;;;4980304;28;20552;-72
2023/10/18 08:09:58;;;;;;;10.37;6.57;;;7.30;99.90;;;;;;5010569;28;20458;-72
2023/10/18 08:12:33;;;;;;;10.40;6.80;;;7.40;99.90;;;;;;4980551;28;20552;-72
2023/10/18 08:14:59;;;;;;;7.53;6.07;;;7.30;99.90;;;;;;4994068;28;20475;-72
2023/10/18 08:17:44;;;;;;;11.13;6.37;;;7.40;99.90;;;;;;4979211;28;20544;-72
2023/10/18 08:23:18;;;;;;;10.20;5.87;;;7.60;99.90;;;;;;4978246;28;20585;-73
2023/10/18 08:26:03;;;;;;;9.73;6.03;;;7.60;99.90;;;;;;4987809;28;20460;-73
2023/10/18 08:28:38;;;;;;;11.07;5.90;;;7.60;99.90;;;;;;4993756;28;20574;-72
2023/10/18 08:31:32;;;;;;;10.00;6.93;;;7.70;99.90;;;;;;4989425;28;20469;-73
2023/10/18 08:33:58;;;;;;;6.70;5.40;;;7.80;99.90;;;;;;4997841;28;20467;-71
2023/10/18 08:36:30;;;;;;;9.63;6.43;;;7.70;99.90;;;;;;4993488;28;20476;-73
2023/10/18 08:38:57;;;;;;;10.67;6.60;;;7.80;99.90;;;;;;4994287;28;20462;-73
2023/10/18 08:41:37;;;;;;;6.40;5.73;;;7.90;99.90;;;;;;5008377;28;20452;-72
2023/10/18 08:44:18;;;;;;;10.73;6.30;;;7.90;99.90;;;;;;4999203;28;20572;-73
2023/10/18 08:47:11;;;;;;;;;;;;;;;;;;;;;
2023/10/18 08:49:33;;;;;;;10.33;6.20;;;8.00;99.90;;;;;;4992921;28;20443;-73
2023/10/18 08:52:08;;;;;;;10.80;6.53;;;8.20;99.90;;;;;;5014723;28;20457;-74
2023/10/18 08:54:36;;;;;;;8.50;5.93;;;8.30;99.90;;;;;;4997241;28;20476;-72
2023/10/18 08:57:08;;;;;;;10.50;7.00;;;8.40;99.90;;;;;;5002816;28;20549;-73
2023/10/18 08:59:42;;;;;;;9.40;6.50;;;8.50;99.90;;;;;;4996407;28;20468;-73
2023/10/18 09:02:18;;;;;;;8.90;6.57;;;8.40;99.90;;;;;;5005227;28;20556;-73
2023/10/18 09:04:52;;;;;;;11.17;6.77;;;8.30;99.90;;;;;;5006782;28;20578;-73
2023/10/18 09:07:21;;;;;;;11.17;7.10;;;8.40;99.90;;;;;;5020214;28;21205;-72
2023/10/18 09:09:55;;;;;;;11.77;7.87;;;8.40;99.90;;;;;;5004820;28;20453;-73
2023/10/18 09:15:28;;;;;;;16.10;7.87;;;8.50;99.90;;;;;;5003807;28;20476;-73
2023/10/18 09:18:05;;;;;;;11.60;6.93;;;8.50;99.90;;;;;;5006899;28;20461;-73
2023/10/18 09:20:31;;;;;;;10.43;6.60;;;8.50;99.90;;;;;;5023315;28;20460;-72
2023/10/18 09:23:02;;;;;;;11.37;6.27;;;8.70;99.90;;;;;;5002825;28;21050;-73
2023/10/18 09:25:28;;;;;;;9.33;6.07;;;8.60;99.90;;;;;;5005253;28;20535;-73
2023/10/18 09:28:10;;;;;;;10.33;5.87;;;8.60;99.90;;;;;;5006917;28;20457;-74
2023/10/18 09:30:36;;;;;;;11.33;7.53;;;8.70;99.90;;;;;;5001262;28;20279;-73
2023/10/18 09:33:03;;;;;;;11.83;8.70;;;8.80;99.90;;;;;;5007255;28;21020;-73
2023/10/18 09:35:30;;;;;;;12.90;8.57;;;8.90;99.90;;;;;;5005863;28;20460;-72
2023/10/18 09:38:03;;;;;;;11.77;7.97;;;8.90;99.90;;;;;;5010327;28;20452;-73
2023/10/18 09:40:29;;;;;;;15.00;8.30;;;9.00;99.90;;;;;;5026644;28;20451;-73
2023/10/18 09:42:55;;;;;;;41.20;16.13;;;9.00;99.90;;;;;;5012256;28;20472;-73
2023/10/18 09:45:21;;;;;;;34.13;13.93;;;9.00;99.90;;;;;;5003872;28;20461;-73
2023/10/18 09:47:49;;;;;;;21.80;10.40;;;9.00;99.90;;;;;;5006499;28;20747;-73
2023/10/18 09:50:23;;;;;;;11.53;7.03;;;9.00;99.90;;;;;;4998829;28;20222;-73
2023/10/18 09:52:56;;;;;;;8.37;7.07;;;8.90;99.90;;;;;;4997431;28;20596;-74
2023/10/18 09:55:27;;;;;;;12.20;7.20;;;9.00;99.90;;;;;;4981962;28;20569;-73
2023/10/18 09:57:59;;;;;;;8.03;6.07;;;9.10;99.90;;;;;;4981041;28;20472;-73
2023/10/18 10:00:40;;;;;;;14.80;6.00;;;9.30;99.90;;;;;;4984877;28;20497;-73
2023/10/18 10:03:08;;;;;;;11.07;6.40;;;9.40;99.90;;;;;;4997576;28;20560;-73
2023/10/18 10:05:41;;;;;;;10.30;6.30;;;9.30;99.90;;;;;;4982665;28;20485;-70
2023/10/18 10:08:07;;;;;;;9.77;5.70;;;9.30;99.90;;;;;;4975245;28;20997;-73
2023/10/18 10:10:45;;;;;;;9.70;5.60;;;9.40;99.90;;;;;;4976118;28;20457;-72
2023/10/18 10:13:25;;;;;;;7.83;5.30;;;9.50;99.90;;;;;;4980712;28;20478;-73
2023/10/18 10:15:58;;;;;;;7.83;5.90;;;9.50;99.90;;;;;;4980378;28;20492;-74
2023/10/18 10:18:26;;;;;;;9.50;6.27;;;9.70;99.90;;;;;;4961930;28;20484;-73
2023/10/18 10:20:54;;;;;;;8.40;5.77;;;9.70;99.90;;;;;;4977085;28;20470;-74
2023/10/18 10:23:20;;;;;;;8.83;5.90;;;9.70;99.90;;;;;;4984325;28;20466;-74
2023/10/18 10:26:22;;;;;;;11.20;5.87;;;9.70;99.90;;;;;;4984240;28;20982;-73
2023/10/18 10:31:54;;;;;;;9.97;6.23;;;9.90;99.90;;;;;;4979262;28;20959;-72
2023/10/18 10:34:26;;;;;;;8.57;5.70;;;10.20;99.90;;;;;;4998273;28;20469;-72
2023/10/18 10:36:53;;;;;;;10.43;6.40;;;10.10;99.90;;;;;;4973876;28;20477;-72
2023/10/18 10:39:30;;;;;;;10.93;5.90;;;10.00;99.90;;;;;;4979906;28;20489;-72
2023/10/18 10:42:08;;;;;;;7.63;6.10;;;10.10;99.90;;;;;;4982636;28;20586;-73
2023/10/18 10:47:44;;;;;;;7.77;5.30;;;10.20;99.90;;;;;;4983291;28;20544;-73
2023/10/18 10:50:31;;;;;;;7.67;5.87;;;10.30;99.90;;;;;;4971011;28;20553;-73
2023/10/18 10:52:58;;;;;;;7.67;5.40;;;10.20;99.90;;;;;;5005800;28;20239;-72
2023/10/18 10:55:24;;;;;;;8.60;5.67;;;10.30;99.90;;;;;;4980849;28;21128;-73
2023/10/18 10:57:50;;;;;;;8.03;5.50;;;10.30;99.90;;;;;;4983932;28;20461;-74
2023/10/18 11:03:55;;;;;;;9.03;5.63;;;10.50;99.90;;;;;;4998519;28;20576;-73
2023/10/18 11:06:25;;;;;;;8.47;5.13;;;10.90;99.90;;;;;;5002687;28;20507;-72
2023/10/18 11:08:54;;;;;;;7.43;5.17;;;10.90;99.90;;;;;;5000757;28;20493;-73
2023/10/18 11:11:21;;;;;;;7.23;5.73;;;10.90;99.90;;;;;;5002676;28;20473;-72
2023/10/18 11:13:55;;;;;;;9.07;5.60;;;11.00;99.90;;;;;;5010159;28;20518;-73
2023/10/18 11:16:21;;;;;;;7.63;5.93;;;11.10;99.90;;;;;;4989882;28;20504;-72
2023/10/18 11:18:52;;;;;;;7.93;5.20;;;11.20;99.90;;;;;;4987357;28;20543;-73
2023/10/18 11:21:21;;;;;;;11.70;5.13;;;11.30;99.90;;;;;;4983131;28;20265;-74
2023/10/18 11:23:57;;;;;;;8.07;5.60;;;11.30;99.90;;;;;;4989629;28;20464;-72
2023/10/18 11:26:26;;;;;;;7.63;4.63;;;11.30;99.90;;;;;;4973926;28;20481;-73
2023/10/18 11:29:05;;;;;;;8.67;5.17;;;11.10;99.90;;;;;;4982865;28;20459;-74
2023/10/18 11:31:31;;;;;;;8.10;5.80;;;11.20;99.90;;;;;;4998782;28;20456;-74
2023/10/18 11:34:07;;;;;;;5.87;5.00;;;11.10;99.90;;;;;;4996346;28;20991;-73
2023/10/18 11:36:39;;;;;;;10.37;4.90;;;11.20;99.90;;;;;;5000812;28;20472;-74
2023/10/18 11:41:42;;;;;;;6.10;4.80;;;11.40;99.90;;;;;;5020252;28;20988;-75
2023/10/18 11:44:20;;;;;;;8.23;4.97;;;11.40;99.90;;;;;;5006291;28;20994;-74
2023/10/18 11:46:50;;;;;;;6.33;4.97;;;11.40;99.90;;;;;;5001019;28;20460;-74
2023/10/18 11:49:19;;;;;;;7.20;3.80;;;11.50;99.90;;;;;;4985916;28;20449;-74
2023/10/18 11:51:50;;;;;;;8.00;5.37;;;11.70;99.90;;;;;;4988071;28;20576;-74
2023/10/18 11:54:35;;;;;;;5.17;4.10;;;11.90;99.90;;;;;;4989845;28;20470;-74
2023/10/18 11:57:25;;;;;;;5.33;4.23;;;11.90;99.90;;;;;;4984358;28;20501;-74
2023/10/18 11:59:54;;;;;;;6.37;4.90;;;11.60;99.90;;;;;;4994275;28;20458;-72
2023/10/18 12:02:20;;;;;;;4.33;3.90;;;11.60;99.90;;;;;;5008931;28;20499;-75
2023/10/18 12:04:47;;;;;;;3.83;3.33;;;11.70;99.90;;;;;;4999968;28;20466;-74
2023/10/18 12:07:14;;;;;;;4.73;4.00;;;11.80;99.90;;;;;;5004993;28;20233;-75
2023/10/18 12:09:43;;;;;;;7.23;3.83;;;11.90;99.90;;;;;;4993149;28;20456;-73
2023/10/18 12:12:19;;;;;;;4.13;3.73;;;11.80;99.90;;;;;;5021595;28;20481;-74
2023/10/18 12:14:48;;;;;;;6.63;3.97;;;11.80;99.90;;;;;;4989141;28;20453;-75
2023/10/18 12:17:15;;;;;;;3.90;3.27;;;11.80;99.90;;;;;;4987238;28;20464;-74
2023/10/18 12:19:42;;;;;;;7.13;4.10;;;11.80;99.90;;;;;;4987049;28;20481;-72
2023/10/18 12:22:13;;;;;;;5.90;3.57;;;11.80;99.90;;;;;;4985043;28;20466;-72
2023/10/18 12:24:41;;;;;;;4.07;3.47;;;11.80;99.90;;;;;;5001987;28;20842;-74
2023/10/18 12:27:50;;;;;;;7.27;4.00;;;11.80;99.90;;;;;;4994249;28;20471;-74
2023/10/18 12:30:10;;;;;;;5.33;4.03;;;11.70;99.90;;;;;;4999381;28;20468;-74
2023/10/18 12:32:42;;;;;;;4.67;4.27;;;11.80;99.90;;;;;;4983846;28;20492;-75
2023/10/18 12:35:15;;;;;;;4.77;3.57;;;11.80;99.90;;;;;;4982588;28;20510;-74
2023/10/18 12:37:41;;;;;;;4.93;3.60;;;11.70;99.90;;;;;;4970971;28;20477;-75
2023/10/18 12:40:28;;;;;;;4.27;3.23;;;11.70;99.90;;;;;;4976405;28;20485;-75
2023/10/18 12:43:00;;;;;;;4.27;3.87;;;11.70;99.90;;;;;;4998635;28;20252;-75
2023/10/18 12:45:26;;;;;;;7.63;3.77;;;11.70;99.90;;;;;;4968393;28;20839;-75
2023/10/18 12:47:53;;;;;;;4.30;3.07;;;11.70;99.90;;;;;;4984866;28;20473;-74
2023/10/18 12:50:19;;;;;;;3.77;3.47;;;11.70;99.90;;;;;;4994101;28;20470;-74
2023/10/18 12:52:46;;;;;;;10.60;3.70;;;11.70;99.90;;;;;;4995418;28;20461;-72
2023/10/18 12:57:56;;;;;;;4.17;3.10;;;11.70;99.90;;;;;;5012568;28;20542;-75
2023/10/18 13:00:26;;;;;;;4.77;3.67;;;11.70;99.90;;;;;;4989767;28;20494;-75
2023/10/18 13:05:20;;;;;;;5.90;3.77;;;11.70;99.90;;;;;;5005542;28;20498;-74
2023/10/18 13:07:46;;;;;;;3.70;3.40;;;11.80;99.90;;;;;;4988011;28;20519;-75
2023/10/18 13:10:13;;;;;;;5.53;3.87;;;11.80;99.90;;;;;;4985658;28;20227;-74
2023/10/18 13:12:53;;;;;;;4.87;3.67;;;11.90;99.90;;;;;;4988155;28;20228;-75
2023/10/18 13:15:22;;;;;;;17.70;8.50;;;11.80;99.90;;;;;;4966164;28;20513;-76
2023/10/18 13:17:48;;;;;;;16.63;9.67;;;11.90;99.90;;;;;;4976413;28;20537;-74
2023/10/18 13:20:17;;;;;;;12.83;7.63;;;11.90;99.90;;;;;;4986666;28;20835;-74
2023/10/18 13:22:43;;;;;;;10.83;6.57;;;12.00;99.90;;;;;;4986452;28;20470;-75
2023/10/18 13:25:09;;;;;;;6.50;4.80;;;12.00;99.90;;;;;;4983866;28;20469;-75
2023/10/18 13:27:40;;;;;;;7.10;5.77;;;12.00;99.90;;;;;;4982530;28;20226;-75
2023/10/18 13:32:50;;;;;;;8.93;8.03;;;12.00;99.90;;;;;;4987997;28;20965;-75
2023/10/18 13:35:16;;;;;;;9.60;5.97;;;12.10;99.90;;;;;;4985104;28;20501;-75
2023/10/18 13:37:43;;;;;;;7.73;6.27;;;12.10;99.90;;;;;;4985511;28;20218;-75
2023/10/18 13:40:18;;;;;;;7.17;5.30;;;12.10;99.90;;;;;;4986496;28;20258;-75
2023/10/18 13:42:50;;;;;;;5.37;4.60;;;12.20;99.90;;;;;;4978997;28;20465;-75
2023/10/18 13:45:16;;;;;;;10.20;7.20;;;12.10;99.90;;;;;;4982613;28;20519;-75
2023/10/18 13:47:42;;;;;;;13.10;10.20;;;12.10;99.90;;;;;;5019359;28;20928;-74
2023/10/18 13:50:11;;;;;;;12.30;8.50;;;12.20;99.90;;;;;;4984184;28;20233;-74
2023/10/18 13:52:38;;;;;;;8.63;7.37;;;12.20;99.90;;;;;;4978918;28;20229;-75
2023/10/18 13:55:04;;;;;;;7.10;6.40;;;12.20;99.90;;;;;;4982464;28;20522;-75
2023/10/18 13:57:30;;;;;;;6.13;5.07;;;12.20;99.90;;;;;;4986598;28;20461;-75
2023/10/18 13:59:59;;;;;;;4.87;4.17;;;12.20;99.90;;;;;;4986984;28;20949;-74